Terminal Aerodrome Forecast
Issued by NWS

Home | Current Version | Previous Version | Graphics & Text | Print | Product List | Glossary On
Versions: 1 2 3 4 5 6 7 8 9 10 11 12 13 14 15 16 17 18
467
FTUS43 KFGF 061953 AAA
TAFBJI
TAF AMD
KBJI 061953Z 0620/0718 18011KT P6SM SCT035 BKN070
     FM062300 20013G20KT P6SM SCT030 BKN060
     FM070600 25014G22KT P6SM OVC025
     FM071100 27015G25KT 4SM -SN OVC012=

USA.gov is the U.S. government's official web portal to all federal, state and local government web resources and services.